createdAt,value
2018-06-21T00:01:50.032Z,19.20
2018-06-21T00:04:17.310Z,18.70
2018-06-21T00:06:44.607Z,19.20
2018-06-21T00:09:11.903Z,19.00
2018-06-21T00:11:39.544Z,18.40
2018-06-21T00:14:06.861Z,19.10
2018-06-21T00:16:34.507Z,19.00
2018-06-21T00:19:01.993Z,18.00
2018-06-21T00:21:29.288Z,19.00
2018-06-21T00:23:56.603Z,18.80
2018-06-21T00:26:24.111Z,17.70
2018-06-21T00:28:51.509Z,18.80
2018-06-21T00:31:18.990Z,17.40
2018-06-21T00:33:46.361Z,18.80
2018-06-21T00:36:13.719Z,18.80
2018-06-21T00:43:36.492Z,18.70
2018-06-21T00:46:03.827Z,17.80
2018-06-21T00:48:31.111Z,18.70
2018-06-21T00:50:58.530Z,18.70
2018-06-21T00:53:25.848Z,17.80
2018-06-21T00:56:04.671Z,17.40
2018-06-21T00:58:31.934Z,17.20
2018-06-21T01:00:59.262Z,18.30
2018-06-21T01:03:26.635Z,18.50
2018-06-21T01:05:54.038Z,17.20
2018-06-21T01:08:21.353Z,18.50
2018-06-21T01:10:48.648Z,17.10
2018-06-21T01:13:16.167Z,18.30
2018-06-21T01:15:43.473Z,18.40
2018-06-21T01:20:38.100Z,18.30
2018-06-21T01:23:05.419Z,17.20
2018-06-21T01:25:32.848Z,17.90
2018-06-21T01:28:00.252Z,16.30
2018-06-21T01:30:27.831Z,18.20
2018-06-21T01:32:55.220Z,18.00
2018-06-21T01:35:22.820Z,16.90
2018-06-21T01:37:50.172Z,16.90
2018-06-21T01:40:18.571Z,18.20
2018-06-21T01:42:45.959Z,17.10
2018-06-21T01:47:40.713Z,18.10
2018-06-21T01:50:08.011Z,16.90
2018-06-21T01:52:35.391Z,17.00
2018-06-21T01:55:02.683Z,16.50
2018-06-21T01:59:57.287Z,17.90
2018-06-21T02:02:24.671Z,16.90
2018-06-21T02:04:52.088Z,17.90
2018-06-21T02:07:19.440Z,17.90
2018-06-21T02:09:46.770Z,17.10
2018-06-21T02:12:14.091Z,17.30
2018-06-21T02:14:41.530Z,17.80
2018-06-21T02:19:36.181Z,17.70
2018-06-21T02:22:03.520Z,17.20
2018-06-21T02:24:30.819Z,17.20
2018-06-21T02:26:58.151Z,16.30
2018-06-21T02:29:25.583Z,15.80
2018-06-21T02:31:52.929Z,15.80
2018-06-21T02:34:20.338Z,16.30
2018-06-21T02:36:47.624Z,17.60
2018-06-21T02:39:15.030Z,17.50
2018-06-21T02:41:42.574Z,16.00
2018-06-21T02:44:09.911Z,17.50
2018-06-21T02:46:37.324Z,17.10
2018-06-21T02:49:08.023Z,16.50
2018-06-21T02:51:35.351Z,17.50
2018-06-21T02:54:02.640Z,17.40
2018-06-21T02:56:30.023Z,16.20
2018-06-21T02:58:58.362Z,16.20
2018-06-21T03:01:25.747Z,16.30
2018-06-21T03:03:53.094Z,16.30
2018-06-21T03:08:55.765Z,17.40
2018-06-21T03:11:29.917Z,17.60
2018-06-21T03:14:14.222Z,17.40
2018-06-21T03:16:41.580Z,19.00
2018-06-21T03:21:36.175Z,17.30
2018-06-21T03:24:03.700Z,15.80
2018-06-21T03:26:31.003Z,17.20
2018-06-21T03:28:58.377Z,17.20
2018-06-21T03:31:28.429Z,17.30
2018-06-21T03:33:55.690Z,16.30
2018-06-21T03:36:22.959Z,17.20
2018-06-21T03:38:51.474Z,17.30
2018-06-21T03:41:18.788Z,17.20
2018-06-21T03:43:46.367Z,17.10
2018-06-21T03:46:13.716Z,18.30
2018-06-21T03:48:41.802Z,15.70
2018-06-21T03:51:09.116Z,17.20
2018-06-21T03:53:36.388Z,17.30
2018-06-21T03:56:03.826Z,16.30
2018-06-21T03:58:31.120Z,15.80
2018-06-21T04:00:58.451Z,16.10
2018-06-21T04:03:25.748Z,17.60
2018-06-21T04:05:53.027Z,17.30
2018-06-21T04:08:20.524Z,19.70
2018-06-21T04:10:47.823Z,17.00
2018-06-21T04:13:15.172Z,17.80
2018-06-21T04:15:42.450Z,16.20
2018-06-21T04:18:09.752Z,16.40
2018-06-21T04:20:37.224Z,18.10
2018-06-21T04:25:31.935Z,18.20
2018-06-21T04:27:59.257Z,18.30
2018-06-21T04:30:26.543Z,18.40
2018-06-21T04:32:53.846Z,18.40
2018-06-21T04:35:21.763Z,17.60
2018-06-21T04:37:49.282Z,18.60
2018-06-21T04:40:16.524Z,17.70
2018-06-21T04:42:43.812Z,18.80
2018-06-21T04:45:11.148Z,18.20
2018-06-21T04:47:38.544Z,18.10
2018-06-21T04:50:05.869Z,18.70
2018-06-21T04:52:33.136Z,17.20
2018-06-21T04:55:00.516Z,17.60
2018-06-21T04:57:27.807Z,17.60
2018-06-21T04:59:55.089Z,18.90
2018-06-21T05:02:22.387Z,19.30
2018-06-21T05:04:49.731Z,19.20
2018-06-21T05:07:17.031Z,19.30
2018-06-21T05:09:44.524Z,19.10
2018-06-21T05:12:11.875Z,19.10
2018-06-21T05:14:39.204Z,19.10
2018-06-21T05:17:06.509Z,18.30
2018-06-21T05:19:33.833Z,17.70
2018-06-21T05:22:01.421Z,17.40
2018-06-21T05:24:29.054Z,18.50
2018-06-21T05:26:59.095Z,18.30
2018-06-21T05:29:27.282Z,19.50
2018-06-21T05:31:54.604Z,19.60
2018-06-21T05:34:21.939Z,19.70
2018-06-21T05:44:11.403Z,20.50
2018-06-21T05:49:06.168Z,20.40
2018-06-21T05:51:33.458Z,18.80
2018-06-21T05:54:00.968Z,20.50
2018-06-21T05:56:28.312Z,20.60
2018-06-21T05:58:55.719Z,20.60
2018-06-21T06:01:23.054Z,19.90
2018-06-21T06:03:50.547Z,20.00
2018-06-21T06:06:17.859Z,21.20
2018-06-21T06:08:48.708Z,21.20
2018-06-21T06:11:16.072Z,21.30
2018-06-21T06:13:43.560Z,20.00
2018-06-21T06:16:10.927Z,21.60
2018-06-21T06:18:39.571Z,21.50
2018-06-21T06:21:08.393Z,21.70
2018-06-21T06:23:35.746Z,22.40
2018-06-21T06:26:03.403Z,22.00
2018-06-21T06:28:33.026Z,22.20
2018-06-21T06:31:00.430Z,23.60
2018-06-21T06:33:31.047Z,21.60
2018-06-21T06:35:58.403Z,21.70
2018-06-21T06:38:41.328Z,22.40
2018-06-21T06:41:15.147Z,23.30
2018-06-21T06:43:42.547Z,23.30
2018-06-21T06:48:37.162Z,23.90
2018-06-21T06:51:04.457Z,23.60
2018-06-21T06:53:33.413Z,23.60
2018-06-21T06:58:29.755Z,25.20
2018-06-21T07:00:57.406Z,24.70
2018-06-21T07:03:24.681Z,25.20
2018-06-21T07:05:51.996Z,25.30
2018-06-21T07:08:20.576Z,25.60
2018-06-21T07:10:57.894Z,25.80
2018-06-21T07:13:25.882Z,25.70
2018-06-21T07:15:53.182Z,26.30
2018-06-21T07:18:20.430Z,26.40
2018-06-21T07:28:12.366Z,26.90
2018-06-21T07:30:39.647Z,28.40
2018-06-21T07:33:06.895Z,26.20
2018-06-21T07:40:34.392Z,27.80
2018-06-21T07:43:08.649Z,28.00
2018-06-21T07:45:35.956Z,28.80
2018-06-21T07:48:07.885Z,27.20
2018-06-21T07:50:35.255Z,28.50
2018-06-21T07:53:03.452Z,28.70
2018-06-21T07:58:00.800Z,28.60
2018-06-21T08:00:31.524Z,28.30
2018-06-21T08:02:58.923Z,30.10
2018-06-21T08:05:26.252Z,29.40
2018-06-21T08:07:57.189Z,29.40
2018-06-21T08:10:24.652Z,29.40
2018-06-21T08:12:52.060Z,29.50
2018-06-21T08:15:19.336Z,29.00
2018-06-21T08:17:46.629Z,29.60
2018-06-21T08:20:17.409Z,30.00
2018-06-21T08:22:44.675Z,29.20
2018-06-21T08:25:12.084Z,30.80
2018-06-21T08:27:39.326Z,30.80
2018-06-21T08:30:06.645Z,29.90
2018-06-21T08:32:34.255Z,31.60
2018-06-21T08:35:01.549Z,32.10
2018-06-21T08:37:29.318Z,30.40
2018-06-21T08:39:56.686Z,30.90
2018-06-21T08:42:23.971Z,29.80
2018-06-21T08:44:51.356Z,31.80
2018-06-21T08:47:19.462Z,31.90
2018-06-21T08:52:14.321Z,32.20
2018-06-21T08:54:41.675Z,30.30
2018-06-21T08:57:09.351Z,30.80
2018-06-21T08:59:36.591Z,31.40
2018-06-21T09:02:03.884Z,31.50
2018-06-21T09:07:07.884Z,32.60
2018-06-21T09:09:35.219Z,32.00
2018-06-21T09:12:02.625Z,31.60
2018-06-21T09:14:29.903Z,32.50
2018-06-21T09:16:57.187Z,32.20
2018-06-21T09:19:24.454Z,33.70
2018-06-21T09:21:51.804Z,32.30
2018-06-21T09:24:19.384Z,30.20
2018-06-21T09:26:46.802Z,30.80
2018-06-21T09:29:14.464Z,32.00
2018-06-21T09:31:41.937Z,32.90
2018-06-21T09:34:09.485Z,33.20
2018-06-21T09:41:46.215Z,32.90
2018-06-21T09:44:19.332Z,33.70
2018-06-21T09:46:52.523Z,34.60
2018-06-21T09:49:19.931Z,33.40
2018-06-21T09:51:47.350Z,34.30
2018-06-21T09:54:14.987Z,33.60
2018-06-21T09:56:42.249Z,35.10
2018-06-21T09:59:09.680Z,35.20
2018-06-21T10:04:04.745Z,35.10
2018-06-21T10:06:32.008Z,34.60
2018-06-21T10:11:28.795Z,33.20
2018-06-21T10:13:56.075Z,31.70
2018-06-21T10:16:23.344Z,31.50
2018-06-21T10:18:50.589Z,31.90
2018-06-21T10:23:46.052Z,31.30
2018-06-21T10:26:13.433Z,30.40
2018-06-21T10:28:40.916Z,30.40
2018-06-21T10:31:08.640Z,30.50
2018-06-21T10:33:35.886Z,30.40
2018-06-21T10:36:03.168Z,30.40
2018-06-21T10:38:30.630Z,30.40
2018-06-21T10:50:47.151Z,32.60
2018-06-21T10:53:14.417Z,34.00
2018-06-21T10:55:41.699Z,35.90
2018-06-21T10:58:09.335Z,36.80
2018-06-21T11:00:36.603Z,35.40
2018-06-21T11:03:03.913Z,34.00
2018-06-21T11:05:31.175Z,32.20
2018-06-21T11:10:25.827Z,30.60
2018-06-21T11:12:53.080Z,30.80
2018-06-21T11:17:47.724Z,29.70
2018-06-21T11:22:42.247Z,30.60
2018-06-21T11:27:37.167Z,32.20
2018-06-21T11:30:04.561Z,30.10
2018-06-21T11:32:31.847Z,29.40
2018-06-21T11:34:59.335Z,30.70
2018-06-21T11:37:26.663Z,30.10
2018-06-21T11:39:53.925Z,30.80
2018-06-21T11:42:21.664Z,31.60
2018-06-21T11:44:48.988Z,31.60
2018-06-21T11:47:16.243Z,30.30
2018-06-21T11:49:43.519Z,30.70
2018-06-21T11:52:10.833Z,30.90
2018-06-21T11:54:38.073Z,31.70
2018-06-21T11:57:05.963Z,31.60
2018-06-21T11:59:35.572Z,32.10
2018-06-21T12:02:06.020Z,31.50
2018-06-21T12:04:39.156Z,29.60
2018-06-21T12:09:33.694Z,29.50
2018-06-21T12:14:28.366Z,28.80
2018-06-21T12:16:55.851Z,28.20
2018-06-21T12:19:23.184Z,28.00
2018-06-21T12:21:50.447Z,28.20
2018-06-21T12:24:17.703Z,28.20
2018-06-21T12:29:12.306Z,28.60
2018-06-21T12:31:39.574Z,28.60
2018-06-21T12:34:06.903Z,28.90
2018-06-21T12:36:34.968Z,29.00
2018-06-21T12:39:02.256Z,28.80
2018-06-21T12:41:29.529Z,29.30
2018-06-21T12:43:56.787Z,29.10
2018-06-21T12:46:24.135Z,28.80
2018-06-21T12:48:51.416Z,26.90
2018-06-21T12:51:18.671Z,26.90
2018-06-21T12:53:46.043Z,28.70
2018-06-21T12:56:13.314Z,28.60
2018-06-21T12:58:40.577Z,28.50
2018-06-21T13:01:08.020Z,27.80
2018-06-21T13:03:35.288Z,28.00
2018-06-21T13:06:02.611Z,27.40
2018-06-21T13:08:41.215Z,27.30
2018-06-21T13:11:36.319Z,27.20
2018-06-21T13:16:36.524Z,27.30
2018-06-21T13:19:03.855Z,27.50
2018-06-21T13:21:31.154Z,27.80
2018-06-21T13:23:58.497Z,28.00
2018-06-21T13:26:25.866Z,27.60
2018-06-21T13:29:09.555Z,27.80
2018-06-21T13:31:36.931Z,27.70
2018-06-21T13:36:31.922Z,27.50
2018-06-21T13:38:59.254Z,26.80
2018-06-21T13:41:26.571Z,26.80
2018-06-21T13:43:53.827Z,26.80
2018-06-21T13:46:21.975Z,26.90
2018-06-21T13:48:49.257Z,26.80
2018-06-21T13:51:16.509Z,26.70
2018-06-21T13:53:43.833Z,26.90
2018-06-21T13:56:11.115Z,26.80
2018-06-21T13:58:38.593Z,27.00
2018-06-21T14:01:05.871Z,27.10
2018-06-21T14:06:00.555Z,27.30
2018-06-21T14:08:28.135Z,27.30
2018-06-21T14:10:55.283Z,26.80
2018-06-21T14:13:22.520Z,26.00
2018-06-21T14:15:49.844Z,27.80
2018-06-21T14:18:17.150Z,27.90
2018-06-21T14:20:44.505Z,27.70
2018-06-21T14:23:11.710Z,26.80
2018-06-21T14:25:39.983Z,27.90
2018-06-21T14:28:07.279Z,27.30
2018-06-21T14:30:34.579Z,26.40
2018-06-21T14:35:29.193Z,27.20
2018-06-21T14:37:56.421Z,27.10
2018-06-21T14:40:23.679Z,26.10
2018-06-21T14:42:50.943Z,27.30
2018-06-21T14:45:18.243Z,26.90
2018-06-21T14:47:45.600Z,26.20
2018-06-21T14:50:12.852Z,26.70
2018-06-21T14:52:40.222Z,26.10
2018-06-21T14:55:07.564Z,26.80
2018-06-21T14:57:34.820Z,26.60
2018-06-21T15:00:02.272Z,26.30
2018-06-21T15:02:29.642Z,26.00
2018-06-21T15:07:24.578Z,26.10
2018-06-21T15:12:19.915Z,25.60
2018-06-21T15:14:47.176Z,25.00
2018-06-21T15:17:14.668Z,24.90
2018-06-21T15:22:09.240Z,25.10
2018-06-21T15:24:36.563Z,23.70
2018-06-21T15:29:31.245Z,24.50
2018-06-21T15:34:35.222Z,25.70
2018-06-21T15:37:02.593Z,23.90
2018-06-21T15:39:29.900Z,23.50
2018-06-21T15:44:24.407Z,24.80
2018-06-21T15:46:51.719Z,24.60
2018-06-21T15:49:19.019Z,24.00
2018-06-21T15:51:46.344Z,24.20
2018-06-21T15:54:13.707Z,23.00
2018-06-21T15:56:59.944Z,23.90
2018-06-21T15:59:27.236Z,23.90
2018-06-21T16:01:55.057Z,23.80
2018-06-21T16:04:22.364Z,23.60
2018-06-21T16:06:49.752Z,23.50
2018-06-21T16:09:17.040Z,23.50
2018-06-21T16:11:44.348Z,23.40
2018-06-21T16:14:11.653Z,22.90
2018-06-21T16:16:38.931Z,23.10
2018-06-21T16:21:33.470Z,22.80
2018-06-21T16:24:00.704Z,22.80
2018-06-21T16:26:27.975Z,22.70
2018-06-21T16:28:55.243Z,22.50
2018-06-21T16:31:22.603Z,22.30
2018-06-21T16:33:49.956Z,22.20
2018-06-21T16:36:17.230Z,22.10
2018-06-21T16:38:44.559Z,22.20
2018-06-21T16:41:11.898Z,22.50
2018-06-21T16:46:06.475Z,23.20
2018-06-21T16:48:33.807Z,23.40
2018-06-21T16:51:01.164Z,23.30
2018-06-21T16:53:28.436Z,23.20
2018-06-21T16:55:55.785Z,22.90
2018-06-21T16:58:23.044Z,22.70
2018-06-21T17:00:51.196Z,22.30
2018-06-21T17:03:18.552Z,22.60
2018-06-21T17:05:45.900Z,22.60
2018-06-21T17:08:13.312Z,22.60
2018-06-21T17:10:40.592Z,22.80
2018-06-21T17:13:07.881Z,22.70
2018-06-21T17:18:02.435Z,22.60
2018-06-21T17:20:29.719Z,22.50
2018-06-21T17:22:56.995Z,21.30
2018-06-21T17:25:24.247Z,22.70
2018-06-21T17:27:51.516Z,22.60
2018-06-21T17:30:18.803Z,21.50
2018-06-21T17:32:46.104Z,22.60
2018-06-21T17:37:40.715Z,22.50
2018-06-21T17:40:07.995Z,20.60
2018-06-21T17:45:02.600Z,22.40
2018-06-21T17:47:29.963Z,22.30
2018-06-21T17:49:57.325Z,22.10
2018-06-21T17:54:51.996Z,22.00
2018-06-21T17:57:19.327Z,21.90
2018-06-21T17:59:46.761Z,19.90
2018-06-21T18:02:14.096Z,21.10
2018-06-21T18:04:41.463Z,21.70
2018-06-21T18:07:09.120Z,21.60
2018-06-21T18:09:36.421Z,21.50
2018-06-21T18:12:03.780Z,20.00
2018-06-21T18:16:58.338Z,21.20
2018-06-21T18:19:25.614Z,21.50
2018-06-21T18:21:53.005Z,20.80
2018-06-21T18:24:20.275Z,20.60
2018-06-21T18:26:47.584Z,20.70
2018-06-21T18:29:15.022Z,19.30
2018-06-21T18:36:37.612Z,20.30
2018-06-21T18:39:07.103Z,20.30
2018-06-21T18:41:34.446Z,19.50
2018-06-21T18:44:01.892Z,20.20
2018-06-21T18:46:29.672Z,19.10
2018-06-21T18:48:56.931Z,19.20
2018-06-21T18:51:24.225Z,19.30
2018-06-21T18:56:18.901Z,19.90
2018-06-21T18:58:46.986Z,19.80
2018-06-21T19:01:14.284Z,19.70
2018-06-21T19:03:41.617Z,18.90
2018-06-21T19:06:13.529Z,18.20
2018-06-21T19:08:46.488Z,19.60
2018-06-21T19:11:19.436Z,19.40
2018-06-21T19:16:14.122Z,19.30
2018-06-21T19:18:41.419Z,19.30
2018-06-21T19:21:08.863Z,18.00
2018-06-21T19:23:36.264Z,20.50
2018-06-21T19:26:03.872Z,19.20
2018-06-21T19:28:31.171Z,19.20
2018-06-21T19:30:58.491Z,19.20
2018-06-21T19:33:25.799Z,19.20
2018-06-21T19:35:53.184Z,19.20
2018-06-21T19:38:20.478Z,19.10
2018-06-21T19:40:48.594Z,19.10
2018-06-21T19:43:16.009Z,19.10
2018-06-21T19:45:43.251Z,19.10
2018-06-21T19:48:10.579Z,17.20
2018-06-21T19:50:37.905Z,19.00
2018-06-21T19:53:05.233Z,18.90
2018-06-21T19:58:47.559Z,18.90
2018-06-21T20:01:14.943Z,18.90
2018-06-21T20:03:42.303Z,18.90
2018-06-21T20:06:09.593Z,18.80
2018-06-21T20:08:36.890Z,18.80
2018-06-21T20:11:09.847Z,18.70
2018-06-21T20:13:44.575Z,18.30
2018-06-21T20:16:11.860Z,18.50
2018-06-21T20:18:39.744Z,18.60
2018-06-21T20:21:11.399Z,18.50
2018-06-21T20:23:39.443Z,18.40
2018-06-21T20:26:06.714Z,17.60
2018-06-21T20:28:34.043Z,18.40
2018-06-21T20:31:01.555Z,18.30
2018-06-21T20:33:28.873Z,17.70
2018-06-21T20:35:56.579Z,17.10
2018-06-21T20:38:23.895Z,16.80
2018-06-21T20:40:51.193Z,18.10
2018-06-21T20:43:18.517Z,18.00
2018-06-21T20:46:05.151Z,17.90
2018-06-21T20:48:32.407Z,17.90
2018-06-21T20:50:59.803Z,17.80
2018-06-21T20:53:27.115Z,17.70
2018-06-21T20:55:54.433Z,16.40
2018-06-21T20:58:21.762Z,17.50
2018-06-21T21:00:49.040Z,17.40
2018-06-21T21:05:45.772Z,17.20
2018-06-21T21:08:13.052Z,17.10
2018-06-21T21:10:41.262Z,15.60
2018-06-21T21:13:08.568Z,16.90
2018-06-21T21:15:35.888Z,15.90
2018-06-21T21:18:03.207Z,15.60
2018-06-21T21:20:30.507Z,15.10
2018-06-21T21:22:57.928Z,16.60
2018-06-21T21:25:25.208Z,15.70
2018-06-21T21:27:52.607Z,14.50
2018-06-21T21:30:19.916Z,16.30
2018-06-21T21:32:47.180Z,15.50
2018-06-21T21:35:14.435Z,15.40
2018-06-21T21:37:41.765Z,16.20
2018-06-21T21:40:09.072Z,15.50
2018-06-21T21:42:37.368Z,15.70
2018-06-21T21:45:04.992Z,15.90
2018-06-21T21:47:32.336Z,15.80
2018-06-21T21:49:59.587Z,14.20
2018-06-21T21:52:26.883Z,14.00
2018-06-21T21:54:54.203Z,15.70
2018-06-21T21:57:21.711Z,15.70
2018-06-21T21:59:49.451Z,15.60
2018-06-21T22:02:17.437Z,15.20
2018-06-21T22:04:45.096Z,14.50
2018-06-21T22:07:12.433Z,15.40
2018-06-21T22:09:39.679Z,14.10
2018-06-21T22:12:07.307Z,14.80
2018-06-21T22:14:34.676Z,15.00
2018-06-21T22:17:02.033Z,15.10
2018-06-21T22:21:56.840Z,15.00
2018-06-21T22:24:24.463Z,13.80
2018-06-21T22:26:51.744Z,14.80
2018-06-21T22:29:19.035Z,14.90
2018-06-21T22:31:46.297Z,14.80
2018-06-21T22:34:13.563Z,14.70
2018-06-21T22:36:40.934Z,14.70
2018-06-21T22:39:10.011Z,14.70
2018-06-21T22:41:37.348Z,14.60
2018-06-21T22:46:32.008Z,14.50
2018-06-21T22:48:59.270Z,13.30
2018-06-21T22:51:26.528Z,13.50
2018-06-21T22:53:53.878Z,14.40
2018-06-21T22:58:48.445Z,14.20
2018-06-21T23:01:15.722Z,14.20
2018-06-21T23:03:43.060Z,14.10
2018-06-21T23:06:10.443Z,14.00
2018-06-21T23:08:37.712Z,14.00
2018-06-21T23:11:04.982Z,13.90
2018-06-21T23:13:32.244Z,13.90
2018-06-21T23:15:59.562Z,13.80
2018-06-21T23:20:59.779Z,13.80
2018-06-21T23:23:26.999Z,13.70
2018-06-21T23:25:54.234Z,13.60
2018-06-21T23:28:21.508Z,13.50
2018-06-21T23:30:48.746Z,13.50
2018-06-21T23:33:16.012Z,13.40
2018-06-21T23:35:43.359Z,13.30
2018-06-21T23:38:10.615Z,13.30
2018-06-21T23:43:31.091Z,13.20
2018-06-21T23:45:58.398Z,11.60
2018-06-21T23:48:25.711Z,12.40
2018-06-21T23:50:52.983Z,13.10
2018-06-21T23:53:20.215Z,11.20
2018-06-21T23:55:47.463Z,13.00
2018-06-21T23:58:14.714Z,12.70
